Pagina principale
METAR-TAF:

METAR-TAF

Aeroporti :

Aeroporto di Genova-Sestri

Genova, Italia

latitudine: 44-25N, longitudine: 008-51E, altezza: 2 m

Osservazione

Il bollettino è stato emesso 36 minuti fa, alle 17:20 UTC
Vento 8 kt da ovest/sud-ovest
Temperature 12°C
Umidità 71%
Pressione 1018 hPa
Visibilità 10 km o più
Nubi sparse ad un'altezza di 2000 ft

METAR: LIMJ 201720Z 25008KT 9999 SCT020 12/07 Q1018

Ora: 18:56 (17:56 UTC)

Previsione

Il bollettino è stato emesso 56 minuti fa, alle 17:00 UTC
Previsione valida dal 20 alle 18 UTC al 21 alle 18 UTC
Vento 15 kt da nord/nord-est
Visibilità 10 km o più
nessuna nube inferiore a 1500 m e nessun cumulonembo
Temporaneamente
dal 20 alle 19 UTC al 21 alle 10 UTC
Vento 15 kt da nord/nord-est con raffiche fino a 25 kt

TAF: LIMJ 201700Z 2018/2118 03015KT CAVOK TEMPO 2019/2110 03015G25KT

Osservazioni e previsioni meteorologiche di più di 4000 aeroporti (messaggi METAR e TAF).

Le stazioni disponibili sono rappresentate dai dischi gialli e rossi sulla carta.

Puntare il mouse per vedere il nome della stazione.

Clicca sopra per visualizzare le osservazioni e previsioni meteorologiche.

Per cambiare la mappa : fare clic sui pulsanti verdi con una croce nera per ingrandire, il pulsante verde con un trattino per diminuire, o sulla freccia verde per le mappe adiacenti.


METAR-TAF: